createdAt,value
2022-11-08T00:01:33.432Z,100344.00
2022-11-08T00:04:00.108Z,100337.91
2022-11-08T00:06:45.312Z,100329.63
2022-11-08T00:09:30.151Z,100338.22
2022-11-08T00:12:16.823Z,100333.69
2022-11-08T00:14:43.987Z,100341.53
2022-11-08T00:17:10.190Z,100338.75
2022-11-08T00:19:36.478Z,100339.59
2022-11-08T00:22:02.805Z,100338.97
2022-11-08T00:24:29.067Z,100341.66
2022-11-08T00:26:55.416Z,100354.22
2022-11-08T00:29:21.701Z,100349.28
2022-11-08T00:31:48.148Z,100343.78
2022-11-08T00:34:14.420Z,100344.97
2022-11-08T00:36:40.679Z,100344.44
2022-11-08T00:39:06.952Z,100344.13
2022-11-08T00:41:33.211Z,100343.06
2022-11-08T00:43:59.476Z,100344.13
2022-11-08T00:46:25.757Z,100338.31
2022-11-08T00:48:52.033Z,100341.66
2022-11-08T00:51:18.297Z,100343.06
2022-11-08T00:53:44.570Z,100350.00
2022-11-08T00:56:10.831Z,100341.56
2022-11-08T00:58:37.111Z,100345.16
2022-11-08T01:01:03.412Z,100339.72
2022-11-08T01:03:29.713Z,100345.28
2022-11-08T01:05:56.022Z,100345.72
2022-11-08T01:08:22.320Z,100335.63
2022-11-08T01:10:48.594Z,100346.16
2022-11-08T01:13:14.858Z,100335.94
2022-11-08T01:15:41.305Z,100331.44
2022-11-08T01:18:07.692Z,100322.84
2022-11-08T01:20:33.955Z,100324.25
2022-11-08T01:23:00.216Z,100332.50
2022-11-08T01:25:26.497Z,100325.19
2022-11-08T01:27:52.761Z,100318.31
2022-11-08T01:30:19.032Z,100317.28
2022-11-08T01:32:48.711Z,100322.22
2022-11-08T01:35:14.971Z,100324.97
2022-11-08T01:37:41.230Z,100325.84
2022-11-08T01:40:07.511Z,100318.94
2022-11-08T01:42:33.796Z,100313.53
2022-11-08T01:45:00.190Z,100315.75
2022-11-08T01:47:26.456Z,100318.47
2022-11-08T01:49:52.730Z,100313.38
2022-11-08T01:52:18.999Z,100302.94
2022-11-08T01:54:45.287Z,100301.56
2022-11-08T01:57:11.538Z,100303.34
2022-11-08T01:59:37.815Z,100305.88
2022-11-08T02:02:04.164Z,100300.69
2022-11-08T02:04:30.478Z,100308.13
2022-11-08T02:06:56.740Z,100296.28
2022-11-08T02:09:23.034Z,100299.41
2022-11-08T02:11:49.313Z,100294.94
2022-11-08T02:14:15.636Z,100295.22
2022-11-08T02:16:41.894Z,100301.94
2022-11-08T02:19:08.156Z,100296.47
2022-11-08T02:21:34.420Z,100293.69
2022-11-08T02:24:00.714Z,100302.22
2022-11-08T02:26:26.972Z,100292.72
2022-11-08T02:28:53.251Z,100292.53
2022-11-08T02:31:20.002Z,100288.84
2022-11-08T02:33:46.271Z,100286.13
2022-11-08T02:36:12.553Z,100280.59
2022-11-08T02:38:38.824Z,100287.63
2022-11-08T02:41:05.082Z,100282.94
2022-11-08T02:43:31.339Z,100278.19
2022-11-08T02:45:57.602Z,100278.38
2022-11-08T02:48:23.868Z,100281.75
2022-11-08T02:50:50.303Z,100276.56
2022-11-08T02:53:16.595Z,100277.63
2022-11-08T02:55:42.867Z,100280.56
2022-11-08T02:58:09.147Z,100279.44
2022-11-08T03:00:35.603Z,100274.75
2022-11-08T03:03:01.870Z,100280.09
2022-11-08T03:05:28.135Z,100281.28
2022-11-08T03:07:54.538Z,100279.16
2022-11-08T03:10:20.793Z,100279.94
2022-11-08T03:12:47.113Z,100284.59
2022-11-08T03:15:13.546Z,100287.53
2022-11-08T03:17:39.848Z,100294.19
2022-11-08T03:20:06.303Z,100298.16
2022-11-08T03:22:32.580Z,100300.38
2022-11-08T03:24:58.849Z,100298.91
2022-11-08T03:27:25.114Z,100303.13
2022-11-08T03:29:51.362Z,100297.97
2022-11-08T03:32:17.627Z,100289.38
2022-11-08T03:34:43.954Z,100289.38
2022-11-08T03:37:10.206Z,100299.09
2022-11-08T03:39:36.463Z,100298.84
2022-11-08T03:42:06.316Z,100300.66
2022-11-08T03:44:32.592Z,100310.19
2022-11-08T03:46:58.895Z,100325.63
2022-11-08T03:49:25.202Z,100316.47
2022-11-08T03:51:51.679Z,100304.94
2022-11-08T03:54:17.940Z,100312.69
2022-11-08T03:56:44.232Z,100302.66
2022-11-08T03:59:10.527Z,100307.72
2022-11-08T04:01:36.965Z,100307.25
2022-11-08T04:04:03.314Z,100308.28
2022-11-08T04:06:29.585Z,100313.66
2022-11-08T04:08:55.779Z,100315.25
2022-11-08T04:11:40.886Z,100305.63
2022-11-08T04:14:25.665Z,100305.63
2022-11-08T04:16:51.961Z,100297.78
2022-11-08T04:19:37.005Z,100293.38
2022-11-08T04:22:03.300Z,100292.06
2022-11-08T04:24:29.565Z,100301.59
2022-11-08T04:26:55.879Z,100301.00
2022-11-08T04:29:22.155Z,100295.69
2022-11-08T04:31:48.472Z,100302.66
2022-11-08T04:34:16.655Z,100287.75
2022-11-08T04:36:43.218Z,100284.59
2022-11-08T04:39:09.471Z,100281.94
2022-11-08T04:41:35.786Z,100287.47
2022-11-08T04:44:02.045Z,100287.72
2022-11-08T04:46:28.379Z,100284.88
2022-11-08T04:48:54.635Z,100287.44
2022-11-08T04:51:20.955Z,100281.72
2022-11-08T04:53:47.218Z,100282.78
2022-11-08T04:56:13.482Z,100280.19
2022-11-08T04:58:39.743Z,100284.88
2022-11-08T05:01:06.016Z,100285.19
2022-11-08T05:03:32.311Z,100288.75
2022-11-08T05:05:58.563Z,100290.91
2022-11-08T05:08:24.833Z,100284.19
2022-11-08T05:10:51.090Z,100289.69
2022-11-08T05:13:17.352Z,100289.16
2022-11-08T05:15:43.536Z,100280.84
2022-11-08T05:18:09.798Z,100290.53
2022-11-08T05:20:54.877Z,100291.44
2022-11-08T05:23:23.885Z,100290.03
2022-11-08T05:25:50.175Z,100294.97
2022-11-08T05:28:16.767Z,100292.59
2022-11-08T05:30:43.398Z,100298.31
2022-11-08T05:33:09.750Z,100297.44
2022-11-08T05:35:36.086Z,100305.44
2022-11-08T05:38:02.387Z,100308.59
2022-11-08T05:40:33.187Z,100307.25
2022-11-08T05:42:59.838Z,100303.66
2022-11-08T05:45:26.098Z,100316.06
2022-11-08T05:47:52.347Z,100312.34
2022-11-08T05:50:19.649Z,100308.31
2022-11-08T05:52:46.309Z,100313.78
2022-11-08T05:55:12.503Z,100319.13
2022-11-08T05:57:38.717Z,100317.19
2022-11-08T06:00:05.002Z,100315.75
2022-11-08T06:02:33.049Z,100317.19
2022-11-08T06:04:59.467Z,100323.78
2022-11-08T06:07:25.727Z,100322.09
2022-11-08T06:09:51.961Z,100316.47
2022-11-08T06:12:18.233Z,100318.84
2022-11-08T06:14:44.436Z,100327.88
2022-11-08T06:17:10.635Z,100332.09
2022-11-08T06:19:36.889Z,100332.78
2022-11-08T06:22:03.158Z,100322.09
2022-11-08T06:24:29.459Z,100318.25
2022-11-08T06:26:55.715Z,100306.34
2022-11-08T06:29:21.900Z,100313.59
2022-11-08T06:31:48.183Z,100316.19
2022-11-08T06:34:14.474Z,100313.41
2022-11-08T06:36:40.657Z,100323.72
2022-11-08T06:39:06.871Z,100321.81
2022-11-08T06:41:33.536Z,100322.03
2022-11-08T06:43:59.803Z,100313.59
2022-11-08T06:46:26.086Z,100315.72
2022-11-08T06:48:52.293Z,100314.31
2022-11-08T06:51:18.563Z,100320.81
2022-11-08T06:53:44.859Z,100313.72
2022-11-08T06:56:11.081Z,100317.28
2022-11-08T06:58:37.346Z,100308.47
2022-11-08T07:01:03.677Z,100305.41
2022-11-08T07:03:29.944Z,100306.34
2022-11-08T07:05:56.215Z,100303.16
2022-11-08T07:08:24.247Z,100301.81
2022-11-08T07:10:50.738Z,100302.25
2022-11-08T07:13:17.464Z,100306.47
2022-11-08T07:15:45.331Z,100309.31
2022-11-08T07:18:11.639Z,100310.63
2022-11-08T07:20:38.272Z,100315.75
2022-11-08T07:23:04.566Z,100307.25
2022-11-08T07:25:30.917Z,100308.59
2022-11-08T07:27:57.195Z,100310.28
2022-11-08T07:30:23.473Z,100312.13
2022-11-08T07:32:49.792Z,100303.00
2022-11-08T07:35:16.063Z,100307.25
2022-11-08T07:37:42.328Z,100307.56
2022-11-08T07:40:08.614Z,100298.72
2022-11-08T07:43:04.663Z,100302.22
2022-11-08T07:45:24.549Z,100302.69
2022-11-08T07:47:50.808Z,100312.53
2022-11-08T07:50:18.057Z,100308.72
2022-11-08T07:52:44.382Z,100298.59
2022-11-08T07:55:10.695Z,100301.09
2022-11-08T07:57:36.965Z,100297.75
2022-11-08T08:00:07.540Z,100298.94
2022-11-08T08:02:34.294Z,100298.91
2022-11-08T08:05:00.578Z,100299.13
2022-11-08T08:07:26.844Z,100292.91
2022-11-08T08:09:53.112Z,100295.44
2022-11-08T08:12:19.405Z,100291.03
2022-11-08T08:14:45.670Z,100292.50
2022-11-08T08:17:11.946Z,100298.66
2022-11-08T08:19:38.208Z,100295.28
2022-11-08T08:22:04.518Z,100283.72
2022-11-08T08:24:30.813Z,100286.47
2022-11-08T08:26:57.254Z,100285.13
2022-11-08T08:29:23.509Z,100284.00
2022-11-08T08:31:49.774Z,100281.81
2022-11-08T08:34:16.139Z,100279.44
2022-11-08T08:36:43.446Z,100276.59
2022-11-08T08:39:09.715Z,100285.41
2022-11-08T08:41:37.514Z,100285.81
2022-11-08T08:44:03.770Z,100287.81
2022-11-08T08:46:30.098Z,100289.13
2022-11-08T08:48:56.363Z,100283.72
2022-11-08T08:51:22.639Z,100282.78
2022-11-08T08:53:48.928Z,100274.69
2022-11-08T08:56:15.226Z,100273.25
2022-11-08T08:58:42.281Z,100265.47
2022-11-08T09:03:59.198Z,100266.91
2022-11-08T09:06:25.458Z,100264.47
2022-11-08T09:08:51.719Z,100260.19
2022-11-08T09:11:17.989Z,100259.38
2022-11-08T09:13:44.277Z,100258.63
2022-11-08T09:16:10.594Z,100260.56
2022-11-08T09:18:37.025Z,100256.78
2022-11-08T09:21:04.287Z,100264.56
2022-11-08T09:23:30.602Z,100264.63
2022-11-08T09:25:56.862Z,100260.34
2022-11-08T09:28:26.921Z,100266.44
2022-11-08T09:30:56.430Z,100259.38
2022-11-08T09:33:23.008Z,100252.13
2022-11-08T09:35:49.290Z,100255.34
2022-11-08T09:38:17.477Z,100257.22
2022-11-08T09:40:45.996Z,100246.59
2022-11-08T09:43:12.453Z,100252.94
2022-11-08T09:45:38.735Z,100249.28
2022-11-08T09:48:05.814Z,100249.66
2022-11-08T09:50:32.309Z,100239.00
2022-11-08T09:52:58.612Z,100248.41
2022-11-08T09:55:24.883Z,100237.34
2022-11-08T09:57:51.492Z,100232.91
2022-11-08T10:00:17.945Z,100231.22
2022-11-08T10:02:44.190Z,100229.97
2022-11-08T10:05:11.079Z,100237.84
2022-11-08T10:07:37.361Z,100229.16
2022-11-08T10:10:03.725Z,100230.84
2022-11-08T10:12:30.202Z,100221.66
2022-11-08T10:14:56.463Z,100216.50
2022-11-08T10:17:24.549Z,100221.09
2022-11-08T10:19:50.974Z,100221.47
2022-11-08T10:22:17.868Z,100207.88
2022-11-08T10:24:44.280Z,100209.84
2022-11-08T10:27:10.546Z,100213.19
2022-11-08T10:29:36.890Z,100213.28
2022-11-08T10:32:03.142Z,100211.84
2022-11-08T10:34:29.443Z,100203.63
2022-11-08T10:36:55.708Z,100201.31
2022-11-08T10:39:21.962Z,100191.78
2022-11-08T10:41:48.279Z,100184.06
2022-11-08T10:44:15.346Z,100182.22
2022-11-08T10:46:41.652Z,100181.38
2022-11-08T10:49:07.902Z,100184.09
2022-11-08T10:51:34.191Z,100172.22
2022-11-08T10:54:01.000Z,100167.38
2022-11-08T10:56:27.303Z,100164.00
2022-11-08T10:58:53.555Z,100170.69
2022-11-08T11:01:19.910Z,100164.63
2022-11-08T11:03:46.314Z,100162.81
2022-11-08T11:06:12.570Z,100159.19
2022-11-08T11:08:38.836Z,100161.72
2022-11-08T11:11:05.284Z,100150.66
2022-11-08T11:13:31.543Z,100149.78
2022-11-08T11:16:03.246Z,100144.94
2022-11-08T11:18:29.608Z,100139.72
2022-11-08T11:20:55.887Z,100135.00
2022-11-08T11:23:22.180Z,100136.13
2022-11-08T11:25:48.443Z,100143.72
2022-11-08T11:28:15.041Z,100128.88
2022-11-08T11:30:42.091Z,100140.25
2022-11-08T11:33:08.389Z,100139.47
2022-11-08T11:35:34.836Z,100140.28
2022-11-08T11:38:01.334Z,100119.59
2022-11-08T11:40:27.673Z,100132.22
2022-11-08T11:42:53.926Z,100135.03
2022-11-08T11:45:20.386Z,100135.97
2022-11-08T11:47:50.303Z,100130.53
2022-11-08T11:50:16.691Z,100128.19
2022-11-08T11:52:42.942Z,100130.78
2022-11-08T11:55:09.639Z,100126.31
2022-11-08T11:57:36.391Z,100123.03
2022-11-08T12:00:04.736Z,100116.56
2022-11-08T12:02:31.161Z,100114.03
2022-11-08T12:04:57.463Z,100124.47
2022-11-08T12:07:23.731Z,100114.19
2022-11-08T12:09:50.004Z,100120.91
2022-11-08T12:12:16.276Z,100111.56
2022-11-08T12:14:42.542Z,100109.00
2022-11-08T12:17:09.161Z,100116.53
2022-11-08T12:19:35.427Z,100109.78
2022-11-08T12:22:01.694Z,100101.63
2022-11-08T12:24:28.959Z,100097.53
2022-11-08T12:26:55.422Z,100092.94
2022-11-08T12:29:21.921Z,100097.16
2022-11-08T12:31:48.212Z,100101.66
2022-11-08T12:34:14.814Z,100103.44
2022-11-08T12:36:41.102Z,100102.63
2022-11-08T12:39:07.363Z,100089.00
2022-11-08T12:41:34.681Z,100090.56
2022-11-08T12:44:00.978Z,100095.19
2022-11-08T12:46:27.238Z,100088.34
2022-11-08T12:48:53.596Z,100077.94
2022-11-08T12:51:19.902Z,100086.44
2022-11-08T12:53:48.517Z,100083.84
2022-11-08T12:56:14.803Z,100093.69
2022-11-08T12:58:41.071Z,100094.41
2022-11-08T13:01:07.436Z,100096.66
2022-11-08T13:03:33.761Z,100095.16
2022-11-08T13:06:00.644Z,100082.56
2022-11-08T13:08:26.912Z,100089.03
2022-11-08T13:10:53.193Z,100092.03
2022-11-08T13:13:19.475Z,100090.22
2022-11-08T13:15:45.884Z,100078.81
2022-11-08T13:18:12.139Z,100079.25
2022-11-08T13:20:38.438Z,100077.31
2022-11-08T13:23:04.742Z,100069.75
2022-11-08T13:25:31.156Z,100065.81
2022-11-08T13:27:57.559Z,100070.34
2022-11-08T13:30:23.848Z,100074.09
2022-11-08T13:32:54.027Z,100071.16
2022-11-08T13:35:20.978Z,100064.06
2022-11-08T13:37:47.244Z,100066.69
2022-11-08T13:40:13.502Z,100063.97
2022-11-08T13:42:39.826Z,100070.81
2022-11-08T13:45:06.232Z,100070.09
2022-11-08T13:47:32.484Z,100059.88
2022-11-08T13:49:59.933Z,100059.03
2022-11-08T13:52:26.194Z,100048.81
2022-11-08T13:54:52.516Z,100049.63
2022-11-08T13:57:19.105Z,100053.34
2022-11-08T13:59:45.371Z,100055.34
2022-11-08T14:02:11.655Z,100057.34
2022-11-08T14:04:40.242Z,100048.66
2022-11-08T14:07:08.460Z,100053.34
2022-11-08T14:09:35.540Z,100044.28
2022-11-08T14:12:04.033Z,100048.25
2022-11-08T14:14:33.830Z,100042.00
2022-11-08T14:17:03.431Z,100044.53
2022-11-08T14:19:30.074Z,100046.13
2022-11-08T14:21:56.363Z,100038.28
2022-11-08T14:24:22.681Z,100042.56
2022-11-08T14:26:49.114Z,100038.00
2022-11-08T14:29:15.879Z,100038.56
2022-11-08T14:31:42.143Z,100036.31
2022-11-08T14:34:08.405Z,100036.00
2022-11-08T14:36:34.671Z,100036.72
2022-11-08T14:39:00.938Z,100043.41
2022-11-08T14:41:27.216Z,100038.84
2022-11-08T14:43:53.522Z,100039.97
2022-11-08T14:46:19.968Z,100036.44
2022-11-08T14:48:46.227Z,100043.66
2022-11-08T14:51:13.131Z,100051.44
2022-11-08T14:53:39.400Z,100049.31
2022-11-08T14:56:05.671Z,100047.88
2022-11-08T14:58:36.806Z,100044.09
2022-11-08T15:01:06.191Z,100035.00
2022-11-08T15:03:32.546Z,100039.84
2022-11-08T15:05:58.876Z,100036.03
2022-11-08T15:08:25.159Z,100042.06
2022-11-08T15:10:51.457Z,100040.91
2022-11-08T15:13:17.986Z,100041.19
2022-11-08T15:15:44.574Z,100039.22
2022-11-08T15:18:11.201Z,100035.50
2022-11-08T15:20:37.804Z,100045.13
2022-11-08T15:23:04.064Z,100038.41
2022-11-08T15:25:32.403Z,100043.06
2022-11-08T15:27:58.677Z,100043.47
2022-11-08T15:30:25.132Z,100047.91
2022-11-08T15:32:51.441Z,100041.06
2022-11-08T15:35:17.708Z,100036.72
2022-11-08T15:37:44.203Z,100041.50
2022-11-08T15:40:10.463Z,100036.44
2022-11-08T15:42:40.570Z,100033.34
2022-11-08T15:45:09.502Z,100035.94
2022-11-08T15:47:35.904Z,100049.31
2022-11-08T15:50:02.379Z,100048.00
2022-11-08T15:52:28.644Z,100050.44
2022-11-08T15:55:19.889Z,100048.84
2022-11-08T15:57:46.342Z,100035.50
2022-11-08T16:00:12.616Z,100026.38
2022-11-08T16:02:38.870Z,100031.38
2022-11-08T16:05:06.132Z,100018.97
2022-11-08T16:07:32.400Z,100022.56
2022-11-08T16:09:58.693Z,100022.56
2022-11-08T16:12:24.966Z,100021.09
2022-11-08T16:14:51.965Z,100023.63
2022-11-08T16:17:18.235Z,100023.84
2022-11-08T16:19:44.494Z,100021.09
2022-11-08T16:22:11.523Z,100025.81
2022-11-08T16:24:45.443Z,100019.69
2022-11-08T16:27:11.743Z,100021.38
2022-11-08T16:29:38.012Z,100014.09
2022-11-08T16:32:04.289Z,100015.28
2022-11-08T16:34:30.543Z,100016.13
2022-11-08T16:36:56.871Z,100009.69
2022-11-08T16:39:23.136Z,100007.69
2022-11-08T16:41:49.397Z,100005.75
2022-11-08T16:44:15.923Z,100009.94
2022-11-08T16:46:42.205Z,100009.19
2022-11-08T16:49:08.539Z,100010.53
2022-11-08T16:51:34.869Z,100013.59
2022-11-08T16:54:01.136Z,100010.88
2022-11-08T16:56:27.452Z,100005.53
2022-11-08T16:58:53.711Z,100011.28
2022-11-08T17:01:21.049Z,100016.66
2022-11-08T17:03:47.356Z,100010.78
2022-11-08T17:06:13.674Z,100004.78
2022-11-08T17:08:39.939Z,100001.97
2022-11-08T17:11:06.259Z,100008.44
2022-11-08T17:13:37.522Z,100002.06
2022-11-08T17:16:06.489Z,100003.38
2022-11-08T17:18:32.748Z,99997.69
2022-11-08T17:21:07.574Z,100003.94
2022-11-08T17:23:45.331Z,100006.84
2022-11-08T17:26:11.641Z,100004.03
2022-11-08T17:28:39.361Z,100010.34
2022-11-08T17:31:09.626Z,100005.56
2022-11-08T17:33:35.929Z,100009.09
2022-11-08T17:36:02.186Z,100009.50
2022-11-08T17:38:28.452Z,99999.50
2022-11-08T17:40:54.720Z,100005.13
2022-11-08T17:43:21.220Z,100000.97
2022-11-08T17:48:40.295Z,100009.50
2022-11-08T17:51:06.626Z,100010.88
2022-11-08T17:53:32.884Z,100010.16
2022-11-08T17:55:59.151Z,100017.09
2022-11-08T17:58:28.470Z,100014.69
2022-11-08T18:00:54.842Z,100014.91
2022-11-08T18:03:21.543Z,100018.59
2022-11-08T18:05:47.922Z,100021.53
2022-11-08T18:08:14.226Z,100027.19
2022-11-08T18:10:40.495Z,100022.31
2022-11-08T18:13:06.765Z,100015.44
2022-11-08T18:15:33.026Z,100015.69
2022-11-08T18:17:59.321Z,100011.31
2022-11-08T18:20:25.587Z,100017.03
2022-11-08T18:22:51.883Z,100015.06
2022-11-08T18:25:18.150Z,100009.69
2022-11-08T18:27:44.406Z,100003.84
2022-11-08T18:30:10.675Z,100015.22
2022-11-08T18:32:36.952Z,100011.81
2022-11-08T18:35:03.244Z,100006.88
2022-11-08T18:37:29.883Z,100020.75
2022-11-08T18:39:56.171Z,100010.69
2022-11-08T18:42:22.470Z,100008.63
2022-11-08T18:44:48.723Z,100018.88
2022-11-08T18:47:14.982Z,100013.47
2022-11-08T18:49:41.267Z,100013.63
2022-11-08T18:52:07.697Z,100006.50
2022-11-08T18:54:33.983Z,100012.72
2022-11-08T18:57:00.427Z,100005.94
2022-11-08T18:59:26.695Z,100008.81
2022-11-08T19:01:54.308Z,100002.97
2022-11-08T19:04:20.615Z,100004.19
2022-11-08T19:06:51.617Z,99999.16
2022-11-08T19:09:20.781Z,99998.56
2022-11-08T19:11:47.991Z,99992.78
2022-11-08T19:14:14.254Z,100001.72
2022-11-08T19:16:42.601Z,99991.88
2022-11-08T19:19:08.927Z,99990.00
2022-11-08T19:21:35.293Z,99991.81
2022-11-08T19:24:02.177Z,99997.09
2022-11-08T19:26:29.118Z,99995.81
2022-11-08T19:28:55.567Z,99989.13
2022-11-08T19:31:21.931Z,99989.97
2022-11-08T19:36:43.520Z,99993.00
2022-11-08T19:39:10.727Z,100002.66
2022-11-08T19:41:36.926Z,99996.81
2022-11-08T19:44:03.271Z,100001.69
2022-11-08T19:46:29.975Z,100005.66
2022-11-08T19:48:56.530Z,100004.78
2022-11-08T19:51:22.781Z,100004.28
2022-11-08T19:53:49.199Z,100012.56
2022-11-08T19:56:15.479Z,100014.41
2022-11-08T19:58:41.960Z,100014.41
2022-11-08T20:01:08.254Z,100014.19
2022-11-08T20:03:34.685Z,100010.03
2022-11-08T20:06:00.949Z,100013.00
2022-11-08T20:08:28.754Z,100011.50
2022-11-08T20:10:55.033Z,100012.88
2022-11-08T20:13:21.325Z,100015.91
2022-11-08T20:15:47.601Z,100015.97
2022-11-08T20:18:14.048Z,100002.69
2022-11-08T20:20:40.374Z,100002.94
2022-11-08T20:23:06.719Z,100013.31
2022-11-08T20:25:34.165Z,100000.97
2022-11-08T20:28:00.419Z,100014.03
2022-11-08T20:30:26.703Z,100013.06
2022-11-08T20:32:52.958Z,100019.22
2022-11-08T20:35:23.350Z,100016.78
2022-11-08T20:37:49.959Z,100015.44
2022-11-08T20:40:16.392Z,100019.22
2022-11-08T20:42:42.643Z,100013.00
2022-11-08T20:45:14.566Z,100018.50
2022-11-08T20:47:41.295Z,100022.56
2022-11-08T20:50:07.548Z,100021.09
2022-11-08T20:52:33.965Z,100017.19
2022-11-08T20:55:00.219Z,100020.84
2022-11-08T20:57:26.483Z,100025.50
2022-11-08T20:59:53.721Z,100026.88
2022-11-08T21:02:20.021Z,100030.56
2022-11-08T21:04:46.325Z,100025.28
2022-11-08T21:08:01.220Z,100028.94
2022-11-08T21:10:19.707Z,100021.59
2022-11-08T21:12:45.200Z,100023.56
2022-11-08T21:15:12.255Z,100022.50
2022-11-08T21:17:38.503Z,100020.78
2022-11-08T21:20:08.059Z,100024.31
2022-11-08T21:22:34.321Z,100012.97
2022-11-08T21:25:00.579Z,100017.72
2022-11-08T21:27:29.751Z,100016.78
2022-11-08T21:29:56.414Z,100023.09
2022-11-08T21:32:22.711Z,100012.72
2022-11-08T21:34:48.996Z,100011.25
2022-11-08T21:37:15.320Z,100010.84
2022-11-08T21:39:41.963Z,100012.56
2022-11-08T21:42:08.266Z,100015.00
2022-11-08T21:44:37.309Z,100006.53
2022-11-08T21:47:03.647Z,100006.72
2022-11-08T21:49:29.917Z,100011.72
2022-11-08T21:51:56.245Z,100004.88
2022-11-08T21:54:22.578Z,100007.56
2022-11-08T21:56:48.845Z,100008.88
2022-11-08T21:59:15.103Z,100012.31
2022-11-08T22:01:41.426Z,100012.19
2022-11-08T22:04:08.200Z,100005.44
2022-11-08T22:06:36.137Z,100010.97
2022-11-08T22:09:02.494Z,100005.56
2022-11-08T22:11:28.917Z,100006.06
2022-11-08T22:13:55.189Z,100000.84
2022-11-08T22:16:21.490Z,100007.56
2022-11-08T22:19:04.109Z,100004.53
2022-11-08T22:21:40.400Z,100006.75
2022-11-08T22:24:06.907Z,99996.81
2022-11-08T22:26:33.231Z,100004.28
2022-11-08T22:28:59.495Z,100000.84
2022-11-08T22:31:25.773Z,100006.22
2022-11-08T22:33:52.034Z,100004.28
2022-11-08T22:36:21.316Z,100002.22
2022-11-08T22:38:47.610Z,100001.22
2022-11-08T22:41:13.865Z,99997.56
2022-11-08T22:43:40.135Z,99996.69
2022-11-08T22:46:06.416Z,99996.59
2022-11-08T22:48:32.687Z,99997.47
2022-11-08T22:50:59.048Z,99993.31
2022-11-08T22:53:25.303Z,99998.34
2022-11-08T22:55:51.610Z,99996.97
2022-11-08T22:58:18.004Z,99997.69
2022-11-08T23:00:44.284Z,100002.59
2022-11-08T23:03:10.604Z,99995.00
2022-11-08T23:08:26.945Z,100001.97
2022-11-08T23:11:11.997Z,100000.66
2022-11-08T23:13:56.643Z,100003.81
2022-11-08T23:16:31.815Z,100000.66
2022-11-08T23:19:16.900Z,100001.00
2022-11-08T23:22:01.770Z,99995.88
2022-11-08T23:24:28.030Z,99999.31
2022-11-08T23:27:12.932Z,99998.81
2022-11-08T23:29:57.751Z,99999.44
2022-11-08T23:32:24.071Z,99995.41
2022-11-08T23:34:50.340Z,99993.34
2022-11-08T23:37:16.596Z,99986.22
2022-11-08T23:40:01.570Z,99987.44
2022-11-08T23:42:46.456Z,99998.94
2022-11-08T23:45:12.710Z,100000.91
2022-11-08T23:47:38.982Z,99993.34
2022-11-08T23:50:05.236Z,99994.31
2022-11-08T23:52:31.495Z,99994.78
2022-11-08T23:54:57.768Z,99989.19
2022-11-08T23:57:24.025Z,99987.00
2022-11-08T23:59:50.275Z,99989.94
